sensor_id;sensor_type;location;lat;lon;timestamp;P1;durP1;ratioP1;P2;durP2;ratioP2
22490;SDS011;11412;50.802;4.350;2023-12-28T00:01:04;2.67;;;2.22;;
22490;SDS011;11412;50.802;4.350;2023-12-28T00:03:30;2.15;;;2.00;;
22490;SDS011;11412;50.802;4.350;2023-12-28T00:05:56;2.20;;;2.00;;
22490;SDS011;11412;50.802;4.350;2023-12-28T00:08:21;2.17;;;1.65;;
22490;SDS011;11412;50.802;4.350;2023-12-28T00:10:47;3.65;;;2.40;;
22490;SDS011;11412;50.802;4.350;2023-12-28T00:13:13;3.58;;;2.10;;
22490;SDS011;11412;50.802;4.350;2023-12-28T00:15:38;2.08;;;1.90;;
22490;SDS011;11412;50.802;4.350;2023-12-28T00:18:04;4.70;;;2.30;;
22490;SDS011;11412;50.802;4.350;2023-12-28T00:20:30;3.25;;;2.08;;
22490;SDS011;11412;50.802;4.350;2023-12-28T00:22:55;1.73;;;1.60;;
22490;SDS011;11412;50.802;4.350;2023-12-28T00:25:23;4.07;;;2.15;;
22490;SDS011;11412;50.802;4.350;2023-12-28T00:27:48;3.05;;;2.00;;
22490;SDS011;11412;50.802;4.350;2023-12-28T00:30:14;2.60;;;2.10;;
22490;SDS011;11412;50.802;4.350;2023-12-28T00:32:42;3.78;;;2.20;;
22490;SDS011;11412;50.802;4.350;2023-12-28T00:35:09;2.60;;;2.10;;
22490;SDS011;11412;50.802;4.350;2023-12-28T00:37:36;4.78;;;2.00;;
22490;SDS011;11412;50.802;4.350;2023-12-28T00:40:01;2.15;;;2.03;;
22490;SDS011;11412;50.802;4.350;2023-12-28T00:42:27;2.22;;;2.00;;
22490;SDS011;11412;50.802;4.350;2023-12-28T00:44:53;7.82;;;2.28;;
22490;SDS011;11412;50.802;4.350;2023-12-28T00:47:18;4.88;;;2.17;;
22490;SDS011;11412;50.802;4.350;2023-12-28T00:49:44;2.47;;;2.17;;
22490;SDS011;11412;50.802;4.350;2023-12-28T00:52:09;5.18;;;2.17;;
22490;SDS011;11412;50.802;4.350;2023-12-28T00:54:35;3.00;;;1.95;;
22490;SDS011;11412;50.802;4.350;2023-12-28T00:57:04;3.35;;;2.00;;
22490;SDS011;11412;50.802;4.350;2023-12-28T00:59:30;3.22;;;2.05;;
22490;SDS011;11412;50.802;4.350;2023-12-28T01:01:56;4.88;;;2.15;;
22490;SDS011;11412;50.802;4.350;2023-12-28T01:04:22;4.20;;;2.05;;
22490;SDS011;11412;50.802;4.350;2023-12-28T01:06:51;6.03;;;2.10;;
22490;SDS011;11412;50.802;4.350;2023-12-28T01:09:17;2.42;;;2.03;;
22490;SDS011;11412;50.802;4.350;2023-12-28T01:11:45;5.93;;;2.10;;
22490;SDS011;11412;50.802;4.350;2023-12-28T01:14:11;2.20;;;2.10;;
22490;SDS011;11412;50.802;4.350;2023-12-28T01:16:36;3.22;;;2.33;;
22490;SDS011;11412;50.802;4.350;2023-12-28T01:19:04;4.70;;;2.22;;
22490;SDS011;11412;50.802;4.350;2023-12-28T01:21:30;3.05;;;2.08;;
22490;SDS011;11412;50.802;4.350;2023-12-28T01:23:56;4.10;;;2.38;;
22490;SDS011;11412;50.802;4.350;2023-12-28T01:26:22;2.00;;;1.80;;
22490;SDS011;11412;50.802;4.350;2023-12-28T01:28:47;2.05;;;1.85;;
22490;SDS011;11412;50.802;4.350;2023-12-28T01:31:13;2.85;;;1.83;;
22490;SDS011;11412;50.802;4.350;2023-12-28T01:33:39;6.05;;;2.00;;
22490;SDS011;11412;50.802;4.350;2023-12-28T01:36:20;4.03;;;2.45;;
22490;SDS011;11412;50.802;4.350;2023-12-28T01:38:46;4.57;;;2.05;;
22490;SDS011;11412;50.802;4.350;2023-12-28T01:41:12;3.33;;;1.88;;
22490;SDS011;11412;50.802;4.350;2023-12-28T01:43:40;3.88;;;2.13;;
22490;SDS011;11412;50.802;4.350;2023-12-28T01:46:06;2.90;;;1.80;;
22490;SDS011;11412;50.802;4.350;2023-12-28T01:48:39;3.92;;;2.03;;
22490;SDS011;11412;50.802;4.350;2023-12-28T01:51:05;4.88;;;2.20;;
22490;SDS011;11412;50.802;4.350;2023-12-28T01:53:31;2.38;;;1.80;;
22490;SDS011;11412;50.802;4.350;2023-12-28T01:55:57;3.28;;;1.98;;
22490;SDS011;11412;50.802;4.350;2023-12-28T01:58:24;2.60;;;1.80;;
22490;SDS011;11412;50.802;4.350;2023-12-28T02:00:51;1.98;;;1.77;;
22490;SDS011;11412;50.802;4.350;2023-12-28T02:03:17;3.22;;;2.00;;
22490;SDS011;11412;50.802;4.350;2023-12-28T02:05:42;2.47;;;1.52;;
22490;SDS011;11412;50.802;4.350;2023-12-28T02:08:08;2.17;;;1.45;;
22490;SDS011;11412;50.802;4.350;2023-12-28T02:10:34;1.70;;;1.60;;
22490;SDS011;11412;50.802;4.350;2023-12-28T02:13:00;4.20;;;2.00;;
22490;SDS011;11412;50.802;4.350;2023-12-28T02:15:25;3.45;;;2.05;;
22490;SDS011;11412;50.802;4.350;2023-12-28T02:18:01;2.70;;;1.90;;
22490;SDS011;11412;50.802;4.350;2023-12-28T02:20:32;2.95;;;1.90;;
22490;SDS011;11412;50.802;4.350;2023-12-28T02:22:59;4.05;;;1.80;;
22490;SDS011;11412;50.802;4.350;2023-12-28T02:25:26;6.20;;;1.80;;
22490;SDS011;11412;50.802;4.350;2023-12-28T02:27:51;1.88;;;1.63;;
22490;SDS011;11412;50.802;4.350;2023-12-28T02:30:18;7.35;;;2.50;;
22490;SDS011;11412;50.802;4.350;2023-12-28T02:35:57;3.10;;;1.70;;
22490;SDS011;11412;50.802;4.350;2023-12-28T02:38:26;4.25;;;2.30;;
22490;SDS011;11412;50.802;4.350;2023-12-28T02:40:54;2.75;;;1.70;;
22490;SDS011;11412;50.802;4.350;2023-12-28T02:43:21;2.72;;;1.60;;
22490;SDS011;11412;50.802;4.350;2023-12-28T02:45:47;4.90;;;2.20;;
22490;SDS011;11412;50.802;4.350;2023-12-28T02:48:13;4.18;;;2.03;;
22490;SDS011;11412;50.802;4.350;2023-12-28T02:50:39;3.22;;;1.85;;
22490;SDS011;11412;50.802;4.350;2023-12-28T02:53:04;3.38;;;1.83;;
22490;SDS011;11412;50.802;4.350;2023-12-28T02:55:30;5.88;;;2.08;;
22490;SDS011;11412;50.802;4.350;2023-12-28T02:57:56;2.42;;;1.73;;
22490;SDS011;11412;50.802;4.350;2023-12-28T03:00:24;3.58;;;1.95;;
22490;SDS011;11412;50.802;4.350;2023-12-28T03:02:50;5.10;;;1.60;;
22490;SDS011;11412;50.802;4.350;2023-12-28T03:05:16;3.58;;;1.50;;
22490;SDS011;11412;50.802;4.350;2023-12-28T03:07:43;4.05;;;1.80;;
22490;SDS011;11412;50.802;4.350;2023-12-28T03:10:09;3.53;;;1.60;;
22490;SDS011;11412;50.802;4.350;2023-12-28T03:12:36;5.93;;;1.58;;
22490;SDS011;11412;50.802;4.350;2023-12-28T03:15:02;7.28;;;2.63;;
22490;SDS011;11412;50.802;4.350;2023-12-28T03:17:29;5.07;;;1.95;;
22490;SDS011;11412;50.802;4.350;2023-12-28T03:19:55;3.35;;;1.50;;
22490;SDS011;11412;50.802;4.350;2023-12-28T03:22:22;3.70;;;1.77;;
22490;SDS011;11412;50.802;4.350;2023-12-28T03:24:47;6.65;;;2.00;;
22490;SDS011;11412;50.802;4.350;2023-12-28T03:27:14;5.45;;;1.85;;
22490;SDS011;11412;50.802;4.350;2023-12-28T03:29:40;6.65;;;1.63;;
22490;SDS011;11412;50.802;4.350;2023-12-28T03:32:07;5.30;;;1.73;;
22490;SDS011;11412;50.802;4.350;2023-12-28T03:34:33;4.53;;;1.65;;
22490;SDS011;11412;50.802;4.350;2023-12-28T03:36:59;4.88;;;1.67;;
22490;SDS011;11412;50.802;4.350;2023-12-28T03:39:24;3.22;;;1.55;;
22490;SDS011;11412;50.802;4.350;2023-12-28T03:41:50;7.78;;;2.30;;
22490;SDS011;11412;50.802;4.350;2023-12-28T03:44:18;3.58;;;1.50;;
22490;SDS011;11412;50.802;4.350;2023-12-28T03:46:47;4.68;;;1.63;;
22490;SDS011;11412;50.802;4.350;2023-12-28T03:49:20;10.63;;;1.83;;
22490;SDS011;11412;50.802;4.350;2023-12-28T03:51:47;7.07;;;1.77;;
22490;SDS011;11412;50.802;4.350;2023-12-28T03:54:17;5.68;;;1.35;;
22490;SDS011;11412;50.802;4.350;2023-12-28T03:56:45;6.47;;;2.13;;
22490;SDS011;11412;50.802;4.350;2023-12-28T03:59:12;5.85;;;2.22;;
22490;SDS011;11412;50.802;4.350;2023-12-28T04:01:37;5.43;;;1.67;;
22490;SDS011;11412;50.802;4.350;2023-12-28T04:04:03;7.47;;;1.88;;
22490;SDS011;11412;50.802;4.350;2023-12-28T04:06:29;5.95;;;2.05;;
22490;SDS011;11412;50.802;4.350;2023-12-28T04:08:55;4.20;;;2.20;;
22490;SDS011;11412;50.802;4.350;2023-12-28T04:11:21;7.13;;;1.98;;
22490;SDS011;11412;50.802;4.350;2023-12-28T04:13:47;3.70;;;1.58;;
22490;SDS011;11412;50.802;4.350;2023-12-28T04:16:13;7.22;;;2.05;;
22490;SDS011;11412;50.802;4.350;2023-12-28T04:18:40;3.85;;;1.40;;
22490;SDS011;11412;50.802;4.350;2023-12-28T04:21:10;7.15;;;1.77;;
22490;SDS011;11412;50.802;4.350;2023-12-28T04:23:37;5.05;;;1.75;;
22490;SDS011;11412;50.802;4.350;2023-12-28T04:26:03;13.15;;;1.90;;
22490;SDS011;11412;50.802;4.350;2023-12-28T04:28:28;4.38;;;1.45;;
22490;SDS011;11412;50.802;4.350;2023-12-28T04:30:54;6.90;;;1.67;;
22490;SDS011;11412;50.802;4.350;2023-12-28T04:33:20;8.63;;;2.38;;
22490;SDS011;11412;50.802;4.350;2023-12-28T04:35:46;9.13;;;1.95;;
22490;SDS011;11412;50.802;4.350;2023-12-28T04:38:12;9.13;;;1.60;;
22490;SDS011;11412;50.802;4.350;2023-12-28T04:40:38;4.03;;;1.52;;
22490;SDS011;11412;50.802;4.350;2023-12-28T04:43:04;10.18;;;1.83;;
22490;SDS011;11412;50.802;4.350;2023-12-28T04:45:29;3.92;;;1.52;;
22490;SDS011;11412;50.802;4.350;2023-12-28T04:47:55;5.22;;;1.30;;
22490;SDS011;11412;50.802;4.350;2023-12-28T04:50:21;10.88;;;1.80;;
22490;SDS011;11412;50.802;4.350;2023-12-28T04:52:46;7.55;;;1.33;;
22490;SDS011;11412;50.802;4.350;2023-12-28T04:55:12;10.60;;;1.60;;
22490;SDS011;11412;50.802;4.350;2023-12-28T04:57:40;3.10;;;1.60;;
22490;SDS011;11412;50.802;4.350;2023-12-28T05:00:06;5.82;;;1.75;;
22490;SDS011;11412;50.802;4.350;2023-12-28T05:02:33;7.18;;;2.20;;
22490;SDS011;11412;50.802;4.350;2023-12-28T05:04:59;3.78;;;1.45;;
22490;SDS011;11412;50.802;4.350;2023-12-28T05:07:24;5.15;;;1.60;;
22490;SDS011;11412;50.802;4.350;2023-12-28T05:09:50;7.70;;;1.80;;
22490;SDS011;11412;50.802;4.350;2023-12-28T05:12:16;7.63;;;2.35;;
22490;SDS011;11412;50.802;4.350;2023-12-28T05:14:42;6.20;;;1.45;;
22490;SDS011;11412;50.802;4.350;2023-12-28T05:17:07;5.60;;;1.92;;
22490;SDS011;11412;50.802;4.350;2023-12-28T05:19:33;6.10;;;2.20;;
22490;SDS011;11412;50.802;4.350;2023-12-28T05:21:59;7.28;;;1.65;;
22490;SDS011;11412;50.802;4.350;2023-12-28T05:24:28;11.70;;;2.20;;
22490;SDS011;11412;50.802;4.350;2023-12-28T05:26:54;11.77;;;1.95;;
22490;SDS011;11412;50.802;4.350;2023-12-28T05:29:20;7.15;;;2.25;;
22490;SDS011;11412;50.802;4.350;2023-12-28T05:31:45;11.07;;;2.10;;
22490;SDS011;11412;50.802;4.350;2023-12-28T05:34:11;5.40;;;2.15;;
22490;SDS011;11412;50.802;4.350;2023-12-28T05:36:37;8.10;;;2.10;;
22490;SDS011;11412;50.802;4.350;2023-12-28T05:39:02;8.00;;;1.50;;
22490;SDS011;11412;50.802;4.350;2023-12-28T05:41:29;9.27;;;1.88;;
22490;SDS011;11412;50.802;4.350;2023-12-28T05:43:54;12.38;;;2.20;;
22490;SDS011;11412;50.802;4.350;2023-12-28T05:46:20;9.40;;;1.90;;
22490;SDS011;11412;50.802;4.350;2023-12-28T05:48:46;9.38;;;1.75;;
22490;SDS011;11412;50.802;4.350;2023-12-28T05:51:11;7.53;;;1.70;;
22490;SDS011;11412;50.802;4.350;2023-12-28T05:53:37;7.38;;;1.80;;
22490;SDS011;11412;50.802;4.350;2023-12-28T05:56:03;4.70;;;1.70;;
22490;SDS011;11412;50.802;4.350;2023-12-28T05:58:29;7.03;;;1.67;;
22490;SDS011;11412;50.802;4.350;2023-12-28T06:00:54;8.07;;;1.70;;
22490;SDS011;11412;50.802;4.350;2023-12-28T06:03:20;7.78;;;2.00;;
22490;SDS011;11412;50.802;4.350;2023-12-28T06:05:46;7.53;;;2.05;;
22490;SDS011;11412;50.802;4.350;2023-12-28T06:08:12;7.32;;;1.50;;
22490;SDS011;11412;50.802;4.350;2023-12-28T06:10:38;12.00;;;2.45;;
22490;SDS011;11412;50.802;4.350;2023-12-28T06:13:03;9.30;;;1.80;;
22490;SDS011;11412;50.802;4.350;2023-12-28T06:15:29;13.82;;;2.60;;
22490;SDS011;11412;50.802;4.350;2023-12-28T06:17:55;12.43;;;1.80;;
22490;SDS011;11412;50.802;4.350;2023-12-28T06:20:21;10.73;;;1.70;;
22490;SDS011;11412;50.802;4.350;2023-12-28T06:22:46;7.13;;;2.10;;
22490;SDS011;11412;50.802;4.350;2023-12-28T06:25:14;7.95;;;1.75;;
22490;SDS011;11412;50.802;4.350;2023-12-28T06:27:39;5.70;;;1.42;;
22490;SDS011;11412;50.802;4.350;2023-12-28T06:30:05;11.77;;;2.00;;
22490;SDS011;11412;50.802;4.350;2023-12-28T06:32:31;10.38;;;1.55;;
22490;SDS011;11412;50.802;4.350;2023-12-28T06:34:57;12.35;;;1.90;;
22490;SDS011;11412;50.802;4.350;2023-12-28T06:37:23;9.88;;;2.03;;
22490;SDS011;11412;50.802;4.350;2023-12-28T06:39:48;7.00;;;1.92;;
22490;SDS011;11412;50.802;4.350;2023-12-28T06:42:14;6.80;;;1.60;;
22490;SDS011;11412;50.802;4.350;2023-12-28T06:44:40;6.72;;;1.73;;
22490;SDS011;11412;50.802;4.350;2023-12-28T06:47:05;4.88;;;1.20;;
22490;SDS011;11412;50.802;4.350;2023-12-28T06:49:31;12.70;;;2.30;;
22490;SDS011;11412;50.802;4.350;2023-12-28T06:51:57;6.68;;;2.08;;
22490;SDS011;11412;50.802;4.350;2023-12-28T06:54:22;11.45;;;1.65;;
22490;SDS011;11412;50.802;4.350;2023-12-28T06:56:49;6.85;;;1.67;;
22490;SDS011;11412;50.802;4.350;2023-12-28T06:59:16;9.27;;;2.17;;
22490;SDS011;11412;50.802;4.350;2023-12-28T07:01:42;10.63;;;2.80;;
22490;SDS011;11412;50.802;4.350;2023-12-28T07:04:09;12.05;;;2.00;;
22490;SDS011;11412;50.802;4.350;2023-12-28T07:06:34;11.68;;;1.95;;
22490;SDS011;11412;50.802;4.350;2023-12-28T07:09:00;10.68;;;2.25;;
22490;SDS011;11412;50.802;4.350;2023-12-28T07:11:26;11.27;;;1.88;;
22490;SDS011;11412;50.802;4.350;2023-12-28T07:13:52;11.15;;;2.20;;
22490;SDS011;11412;50.802;4.350;2023-12-28T07:16:18;9.23;;;1.90;;
22490;SDS011;11412;50.802;4.350;2023-12-28T07:18:43;10.55;;;1.77;;
22490;SDS011;11412;50.802;4.350;2023-12-28T07:21:09;15.18;;;2.13;;
22490;SDS011;11412;50.802;4.350;2023-12-28T07:23:35;10.23;;;2.28;;
22490;SDS011;11412;50.802;4.350;2023-12-28T07:26:01;8.80;;;1.83;;
22490;SDS011;11412;50.802;4.350;2023-12-28T07:28:27;5.43;;;1.55;;
22490;SDS011;11412;50.802;4.350;2023-12-28T07:30:53;7.88;;;1.80;;
22490;SDS011;11412;50.802;4.350;2023-12-28T07:33:19;10.77;;;1.73;;
22490;SDS011;11412;50.802;4.350;2023-12-28T07:35:44;14.77;;;2.28;;
22490;SDS011;11412;50.802;4.350;2023-12-28T07:38:10;8.00;;;1.70;;
22490;SDS011;11412;50.802;4.350;2023-12-28T07:40:36;14.73;;;2.22;;
22490;SDS011;11412;50.802;4.350;2023-12-28T07:43:02;10.93;;;2.50;;
22490;SDS011;11412;50.802;4.350;2023-12-28T07:45:28;10.32;;;2.05;;
22490;SDS011;11412;50.802;4.350;2023-12-28T07:47:54;10.98;;;2.13;;
22490;SDS011;11412;50.802;4.350;2023-12-28T07:50:20;12.57;;;1.77;;
22490;SDS011;11412;50.802;4.350;2023-12-28T07:52:46;7.97;;;1.90;;
22490;SDS011;11412;50.802;4.350;2023-12-28T07:55:13;17.30;;;2.40;;
22490;SDS011;11412;50.802;4.350;2023-12-28T07:57:39;7.57;;;1.73;;
22490;SDS011;11412;50.802;4.350;2023-12-28T08:00:05;11.07;;;2.00;;
22490;SDS011;11412;50.802;4.350;2023-12-28T08:02:31;9.73;;;1.90;;
22490;SDS011;11412;50.802;4.350;2023-12-28T08:04:57;12.23;;;2.47;;
22490;SDS011;11412;50.802;4.350;2023-12-28T08:07:23;9.35;;;2.10;;
22490;SDS011;11412;50.802;4.350;2023-12-28T08:09:48;9.50;;;1.85;;
22490;SDS011;11412;50.802;4.350;2023-12-28T08:12:14;8.23;;;2.47;;
22490;SDS011;11412;50.802;4.350;2023-12-28T08:14:40;12.13;;;1.95;;
22490;SDS011;11412;50.802;4.350;2023-12-28T08:17:05;7.32;;;1.50;;
22490;SDS011;11412;50.802;4.350;2023-12-28T08:19:31;8.85;;;1.90;;
22490;SDS011;11412;50.802;4.350;2023-12-28T08:21:57;9.77;;;2.20;;
22490;SDS011;11412;50.802;4.350;2023-12-28T08:24:23;8.73;;;2.17;;
22490;SDS011;11412;50.802;4.350;2023-12-28T08:26:48;11.18;;;1.90;;
22490;SDS011;11412;50.802;4.350;2023-12-28T08:29:14;12.85;;;2.55;;
22490;SDS011;11412;50.802;4.350;2023-12-28T08:31:40;10.50;;;1.98;;
22490;SDS011;11412;50.802;4.350;2023-12-28T08:34:06;13.93;;;2.47;;
22490;SDS011;11412;50.802;4.350;2023-12-28T08:36:31;9.23;;;2.00;;
22490;SDS011;11412;50.802;4.350;2023-12-28T08:38:57;9.20;;;2.58;;
22490;SDS011;11412;50.802;4.350;2023-12-28T08:41:23;13.30;;;2.30;;
22490;SDS011;11412;50.802;4.350;2023-12-28T08:43:49;15.02;;;2.63;;
22490;SDS011;11412;50.802;4.350;2023-12-28T08:46:15;12.77;;;2.40;;
22490;SDS011;11412;50.802;4.350;2023-12-28T08:48:41;7.97;;;2.13;;
22490;SDS011;11412;50.802;4.350;2023-12-28T08:51:09;11.38;;;2.33;;
22490;SDS011;11412;50.802;4.350;2023-12-28T08:53:36;11.65;;;2.20;;
22490;SDS011;11412;50.802;4.350;2023-12-28T08:56:01;10.35;;;2.00;;
22490;SDS011;11412;50.802;4.350;2023-12-28T08:58:27;6.80;;;2.03;;
22490;SDS011;11412;50.802;4.350;2023-12-28T09:00:53;11.30;;;2.47;;
22490;SDS011;11412;50.802;4.350;2023-12-28T09:03:18;7.13;;;1.73;;
22490;SDS011;11412;50.802;4.350;2023-12-28T09:05:44;13.55;;;2.30;;
22490;SDS011;11412;50.802;4.350;2023-12-28T09:08:10;11.80;;;2.30;;
22490;SDS011;11412;50.802;4.350;2023-12-28T09:10:35;10.88;;;1.98;;
22490;SDS011;11412;50.802;4.350;2023-12-28T09:13:04;11.25;;;2.08;;
22490;SDS011;11412;50.802;4.350;2023-12-28T09:15:30;15.93;;;2.53;;
22490;SDS011;11412;50.802;4.350;2023-12-28T09:17:56;11.45;;;2.15;;
22490;SDS011;11412;50.802;4.350;2023-12-28T09:20:22;9.77;;;2.53;;
22490;SDS011;11412;50.802;4.350;2023-12-28T09:22:48;15.60;;;2.50;;
22490;SDS011;11412;50.802;4.350;2023-12-28T09:25:18;11.15;;;1.77;;
22490;SDS011;11412;50.802;4.350;2023-12-28T09:27:44;9.88;;;2.28;;
22490;SDS011;11412;50.802;4.350;2023-12-28T09:30:10;19.92;;;2.63;;
22490;SDS011;11412;50.802;4.350;2023-12-28T09:32:36;13.25;;;2.13;;
22490;SDS011;11412;50.802;4.350;2023-12-28T09:35:01;14.13;;;2.78;;
22490;SDS011;11412;50.802;4.350;2023-12-28T09:37:27;10.63;;;2.10;;
22490;SDS011;11412;50.802;4.350;2023-12-28T09:39:53;8.10;;;1.80;;
22490;SDS011;11412;50.802;4.350;2023-12-28T09:42:24;9.27;;;2.13;;
22490;SDS011;11412;50.802;4.350;2023-12-28T09:44:54;8.90;;;1.65;;
22490;SDS011;11412;50.802;4.350;2023-12-28T09:47:19;9.05;;;1.73;;
22490;SDS011;11412;50.802;4.350;2023-12-28T09:49:45;8.98;;;1.75;;
22490;SDS011;11412;50.802;4.350;2023-12-28T09:52:12;12.65;;;2.05;;
22490;SDS011;11412;50.802;4.350;2023-12-28T09:54:38;11.07;;;2.15;;
22490;SDS011;11412;50.802;4.350;2023-12-28T09:57:04;11.35;;;2.20;;
22490;SDS011;11412;50.802;4.350;2023-12-28T09:59:30;11.15;;;1.98;;
22490;SDS011;11412;50.802;4.350;2023-12-28T10:01:58;7.55;;;1.50;;
22490;SDS011;11412;50.802;4.350;2023-12-28T10:04:26;10.18;;;2.10;;
22490;SDS011;11412;50.802;4.350;2023-12-28T10:06:54;11.02;;;2.28;;
22490;SDS011;11412;50.802;4.350;2023-12-28T10:09:20;10.50;;;1.90;;
22490;SDS011;11412;50.802;4.350;2023-12-28T10:11:46;9.95;;;2.03;;
22490;SDS011;11412;50.802;4.350;2023-12-28T10:14:13;11.98;;;2.08;;
22490;SDS011;11412;50.802;4.350;2023-12-28T10:16:41;9.20;;;2.60;;
22490;SDS011;11412;50.802;4.350;2023-12-28T10:19:07;16.20;;;2.53;;
22490;SDS011;11412;50.802;4.350;2023-12-28T10:21:33;12.25;;;1.77;;
22490;SDS011;11412;50.802;4.350;2023-12-28T10:23:59;9.98;;;2.20;;
22490;SDS011;11412;50.802;4.350;2023-12-28T10:26:26;12.48;;;1.75;;
22490;SDS011;11412;50.802;4.350;2023-12-28T10:28:59;12.75;;;2.85;;
22490;SDS011;11412;50.802;4.350;2023-12-28T10:31:28;12.52;;;2.08;;
22490;SDS011;11412;50.802;4.350;2023-12-28T10:33:57;11.35;;;2.20;;
22490;SDS011;11412;50.802;4.350;2023-12-28T10:36:24;8.40;;;1.92;;
22490;SDS011;11412;50.802;4.350;2023-12-28T10:38:53;13.38;;;2.72;;
22490;SDS011;11412;50.802;4.350;2023-12-28T10:41:19;14.10;;;2.63;;
22490;SDS011;11412;50.802;4.350;2023-12-28T10:43:46;12.68;;;2.42;;
22490;SDS011;11412;50.802;4.350;2023-12-28T10:46:41;15.52;;;2.45;;
22490;SDS011;11412;50.802;4.350;2023-12-28T10:49:12;11.25;;;2.30;;
22490;SDS011;11412;50.802;4.350;2023-12-28T10:51:42;12.88;;;2.80;;
22490;SDS011;11412;50.802;4.350;2023-12-28T10:54:13;10.43;;;2.45;;
22490;SDS011;11412;50.802;4.350;2023-12-28T10:56:56;14.55;;;3.17;;
22490;SDS011;11412;50.802;4.350;2023-12-28T11:02:07;14.70;;;2.92;;
22490;SDS011;11412;50.802;4.350;2023-12-28T11:04:40;12.15;;;2.65;;
22490;SDS011;11412;50.802;4.350;2023-12-28T11:07:11;14.73;;;2.50;;
22490;SDS011;11412;50.802;4.350;2023-12-28T11:09:43;16.45;;;2.30;;
22490;SDS011;11412;50.802;4.350;2023-12-28T11:12:09;10.93;;;2.15;;
22490;SDS011;11412;50.802;4.350;2023-12-28T11:14:36;15.70;;;2.45;;
22490;SDS011;11412;50.802;4.350;2023-12-28T11:17:04;10.52;;;2.45;;
22490;SDS011;11412;50.802;4.350;2023-12-28T11:19:30;12.27;;;2.28;;
22490;SDS011;11412;50.802;4.350;2023-12-28T11:21:57;16.75;;;2.78;;
22490;SDS011;11412;50.802;4.350;2023-12-28T11:24:26;12.25;;;3.05;;
22490;SDS011;11412;50.802;4.350;2023-12-28T11:26:53;8.90;;;2.10;;
22490;SDS011;11412;50.802;4.350;2023-12-28T11:29:22;16.52;;;3.40;;
22490;SDS011;11412;50.802;4.350;2023-12-28T11:31:52;14.07;;;2.88;;
22490;SDS011;11412;50.802;4.350;2023-12-28T11:34:28;13.13;;;2.10;;
22490;SDS011;11412;50.802;4.350;2023-12-28T11:36:55;12.77;;;2.45;;
22490;SDS011;11412;50.802;4.350;2023-12-28T11:39:41;10.38;;;2.70;;
22490;SDS011;11412;50.802;4.350;2023-12-28T11:42:09;17.52;;;4.43;;
22490;SDS011;11412;50.802;4.350;2023-12-28T11:47:22;13.45;;;2.92;;
22490;SDS011;11412;50.802;4.350;2023-12-28T11:49:49;9.40;;;2.25;;
22490;SDS011;11412;50.802;4.350;2023-12-28T11:52:24;11.13;;;2.17;;
22490;SDS011;11412;50.802;4.350;2023-12-28T11:54:54;11.40;;;2.35;;
22490;SDS011;11412;50.802;4.350;2023-12-28T11:57:20;10.23;;;2.25;;
22490;SDS011;11412;50.802;4.350;2023-12-28T11:59:48;12.30;;;2.55;;
22490;SDS011;11412;50.802;4.350;2023-12-28T12:02:18;15.35;;;2.95;;
22490;SDS011;11412;50.802;4.350;2023-12-28T12:04:44;10.98;;;2.45;;
22490;SDS011;11412;50.802;4.350;2023-12-28T12:07:10;11.50;;;1.92;;
22490;SDS011;11412;50.802;4.350;2023-12-28T12:09:36;12.95;;;2.28;;
22490;SDS011;11412;50.802;4.350;2023-12-28T12:12:01;15.98;;;2.63;;
22490;SDS011;11412;50.802;4.350;2023-12-28T12:14:28;15.15;;;3.63;;
22490;SDS011;11412;50.802;4.350;2023-12-28T12:16:55;15.57;;;2.42;;
22490;SDS011;11412;50.802;4.350;2023-12-28T12:19:24;14.10;;;2.30;;
22490;SDS011;11412;50.802;4.350;2023-12-28T12:21:54;14.95;;;2.33;;
22490;SDS011;11412;50.802;4.350;2023-12-28T12:24:20;13.82;;;2.38;;
22490;SDS011;11412;50.802;4.350;2023-12-28T12:26:47;9.52;;;2.47;;
22490;SDS011;11412;50.802;4.350;2023-12-28T12:29:13;9.77;;;2.45;;
22490;SDS011;11412;50.802;4.350;2023-12-28T12:31:39;13.27;;;2.20;;
22490;SDS011;11412;50.802;4.350;2023-12-28T12:34:10;11.90;;;2.45;;
22490;SDS011;11412;50.802;4.350;2023-12-28T12:36:36;15.68;;;2.53;;
22490;SDS011;11412;50.802;4.350;2023-12-28T12:39:03;16.08;;;2.58;;
22490;SDS011;11412;50.802;4.350;2023-12-28T12:41:34;10.57;;;2.50;;
22490;SDS011;11412;50.802;4.350;2023-12-28T12:44:00;10.68;;;1.80;;
22490;SDS011;11412;50.802;4.350;2023-12-28T12:46:26;9.10;;;2.13;;
22490;SDS011;11412;50.802;4.350;2023-12-28T12:49:00;8.07;;;2.00;;
22490;SDS011;11412;50.802;4.350;2023-12-28T12:51:29;10.43;;;2.00;;
22490;SDS011;11412;50.802;4.350;2023-12-28T12:53:57;11.52;;;3.20;;
22490;SDS011;11412;50.802;4.350;2023-12-28T12:56:28;11.90;;;3.08;;
22490;SDS011;11412;50.802;4.350;2023-12-28T12:58:54;11.95;;;3.03;;
22490;SDS011;11412;50.802;4.350;2023-12-28T13:01:21;12.30;;;2.40;;
22490;SDS011;11412;50.802;4.350;2023-12-28T13:03:48;12.32;;;1.80;;
22490;SDS011;11412;50.802;4.350;2023-12-28T13:06:14;11.23;;;1.95;;
22490;SDS011;11412;50.802;4.350;2023-12-28T13:08:40;10.95;;;2.85;;
22490;SDS011;11412;50.802;4.350;2023-12-28T13:11:06;6.80;;;1.77;;
22490;SDS011;11412;50.802;4.350;2023-12-28T13:13:34;9.68;;;2.33;;
22490;SDS011;11412;50.802;4.350;2023-12-28T13:16:01;12.93;;;2.25;;
22490;SDS011;11412;50.802;4.350;2023-12-28T13:18:27;10.13;;;1.98;;
22490;SDS011;11412;50.802;4.350;2023-12-28T13:20:53;9.82;;;1.98;;
22490;SDS011;11412;50.802;4.350;2023-12-28T13:23:19;16.10;;;2.13;;
22490;SDS011;11412;50.802;4.350;2023-12-28T13:25:45;7.20;;;1.73;;
22490;SDS011;11412;50.802;4.350;2023-12-28T13:28:11;14.77;;;2.38;;
22490;SDS011;11412;50.802;4.350;2023-12-28T13:30:38;6.22;;;1.70;;
22490;SDS011;11412;50.802;4.350;2023-12-28T13:33:04;11.93;;;2.05;;
22490;SDS011;11412;50.802;4.350;2023-12-28T13:35:30;12.68;;;2.45;;
22490;SDS011;11412;50.802;4.350;2023-12-28T13:37:58;11.52;;;2.42;;
22490;SDS011;11412;50.802;4.350;2023-12-28T13:40:26;9.55;;;2.20;;
22490;SDS011;11412;50.802;4.350;2023-12-28T13:42:52;18.05;;;3.03;;
22490;SDS011;11412;50.802;4.350;2023-12-28T13:45:17;10.02;;;2.15;;
22490;SDS011;11412;50.802;4.350;2023-12-28T13:47:43;6.47;;;1.70;;
22490;SDS011;11412;50.802;4.350;2023-12-28T13:50:09;10.95;;;2.03;;
22490;SDS011;11412;50.802;4.350;2023-12-28T13:52:35;12.55;;;2.22;;
22490;SDS011;11412;50.802;4.350;2023-12-28T13:55:01;10.93;;;1.80;;
22490;SDS011;11412;50.802;4.350;2023-12-28T13:57:27;8.98;;;1.65;;
22490;SDS011;11412;50.802;4.350;2023-12-28T13:59:52;13.38;;;2.15;;
22490;SDS011;11412;50.802;4.350;2023-12-28T14:02:18;11.27;;;2.17;;
22490;SDS011;11412;50.802;4.350;2023-12-28T14:04:44;11.63;;;2.03;;
22490;SDS011;11412;50.802;4.350;2023-12-28T14:07:10;11.32;;;2.00;;
22490;SDS011;11412;50.802;4.350;2023-12-28T14:09:36;14.23;;;4.07;;
22490;SDS011;11412;50.802;4.350;2023-12-28T14:12:01;15.05;;;2.55;;
22490;SDS011;11412;50.802;4.350;2023-12-28T14:14:27;13.45;;;2.50;;
22490;SDS011;11412;50.802;4.350;2023-12-28T14:16:53;14.50;;;3.08;;
22490;SDS011;11412;50.802;4.350;2023-12-28T14:19:18;7.40;;;2.28;;
22490;SDS011;11412;50.802;4.350;2023-12-28T14:21:44;8.50;;;2.40;;
22490;SDS011;11412;50.802;4.350;2023-12-28T14:24:10;15.13;;;2.30;;
22490;SDS011;11412;50.802;4.350;2023-12-28T14:26:40;10.98;;;2.03;;
22490;SDS011;11412;50.802;4.350;2023-12-28T14:29:09;8.60;;;1.42;;
22490;SDS011;11412;50.802;4.350;2023-12-28T14:31:35;11.95;;;2.47;;
22490;SDS011;11412;50.802;4.350;2023-12-28T14:34:01;13.68;;;2.80;;
22490;SDS011;11412;50.802;4.350;2023-12-28T14:36:34;16.13;;;2.75;;
22490;SDS011;11412;50.802;4.350;2023-12-28T14:39:04;10.23;;;2.00;;
22490;SDS011;11412;50.802;4.350;2023-12-28T14:41:31;9.02;;;1.88;;
22490;SDS011;11412;50.802;4.350;2023-12-28T14:43:57;17.55;;;7.00;;
22490;SDS011;11412;50.802;4.350;2023-12-28T14:46:24;8.18;;;1.58;;
22490;SDS011;11412;50.802;4.350;2023-12-28T14:48:50;7.05;;;1.70;;